Time;durP1;ratioP1;P1;durP2;ratioP2;P2;SDS_P1;SDS_P2;PMS_P1;PMS_P2;Temp;Humidity;BMP_temperature;BMP_pressure;BME280_temperature;BME280_humidity;BME280_pressure;Samples;Min_cycle;Max_cycle;Signal;HPM_P1;HPM_P2
2022/05/21 00:00:11;;;;;;;;;;;;;;;15.13;58.93;100105.28;5095290;28;19912;-85
2022/05/21 00:02:37;;;;;;;;;;;;;;;14.97;59.48;100111.00;5107573;28;19920;-85
2022/05/21 00:05:03;;;;;;;;;;;;;;;15.05;58.94;100113.47;5108418;28;19930;-85
2022/05/21 00:07:29;;;;;;;;;;;;;;;15.11;59.15;100110.66;5106262;28;20350;-86
2022/05/21 00:09:54;;;;;;;;;;;;;;;15.01;59.19;100112.69;5108147;28;19915;-85
2022/05/21 00:12:20;;;;;;;;;;;;;;;14.94;60.45;100108.44;5107152;28;19985;-86
2022/05/21 00:14:45;;;;;;;;;;;;;;;14.94;59.76;100110.22;5107183;28;19978;-85
2022/05/21 00:17:10;;;;;;;;;;;;;;;14.90;60.29;100108.56;5107346;28;19915;-85
2022/05/21 00:19:36;;;;;;;;;;;;;;;14.91;59.97;100107.66;5107362;28;19927;-85
2022/05/21 00:22:01;;;;;;;;;;;;;;;14.70;60.56;100106.41;5107733;28;20427;-85
2022/05/21 00:24:28;;;;;;;;;;;;;;;14.62;60.71;100107.47;5106596;28;19919;-83
2022/05/21 00:26:53;;;;;;;;;;;;;;;14.61;61.18;100103.09;5107751;28;20687;-85
2022/05/21 00:29:20;;;;;;;;;;;;;;;14.56;61.25;100110.25;5107577;28;19919;-85
2022/05/21 00:31:46;;;;;;;;;;;;;;;14.39;62.29;100101.84;5108274;28;19912;-85
2022/05/21 00:34:12;;;;;;;;;;;;;;;14.47;61.83;100106.06;5104014;28;19915;-85
2022/05/21 00:36:38;;;;;;;;;;;;;;;14.53;61.65;100104.16;5107626;28;19969;-85
2022/05/21 00:39:03;;;;;;;;;;;;;;;14.54;62.08;100100.59;5106805;28;20323;-85
2022/05/21 00:41:30;;;;;;;;;;;;;;;14.53;60.95;100107.66;5107150;28;19920;-85
2022/05/21 00:43:57;;;;;;;;;;;;;;;14.45;61.24;100102.53;5107258;28;19912;-85
2022/05/21 00:46:24;;;;;;;;;;;;;;;14.55;61.10;100107.63;5106735;28;19928;-86
2022/05/21 00:48:55;;;;;;;;;;;;;;;14.50;61.30;100103.31;5106926;28;19915;-85
2022/05/21 00:51:24;;;;;;;;;;;;;;;14.38;61.97;100103.63;5106860;28;19919;-85
2022/05/21 00:53:51;;;;;;;;;;;;;;;14.32;61.40;100101.13;5107176;28;19958;-85
2022/05/21 00:56:17;;;;;;;;;;;;;;;14.15;61.53;100104.16;5106652;28;20415;-84
2022/05/21 01:01:30;;;;;;;;;;;;;;;14.26;61.28;100106.56;5107291;28;20372;-83
2022/05/21 01:03:55;;;;;;;;;;;;;;;14.37;61.43;100106.31;5106948;28;20407;-84
2022/05/21 01:06:21;;;;;;;;;;;;;;;14.24;61.64;100103.06;5104473;28;19907;-83
2022/05/21 01:08:46;;;;;;;;;;;;;;;14.15;61.88;100102.38;5106890;28;19991;-83
2022/05/21 01:11:13;;;;;;;;;;;;;;;14.04;61.31;100100.88;5106340;28;19919;-83
2022/05/21 01:13:40;;;;;;;;;;;;;;;14.13;61.16;100101.56;5106805;28;20312;-84
2022/05/21 01:16:06;;;;;;;;;;;;;;;14.21;61.29;100095.16;5106021;28;19923;-84
2022/05/21 01:18:31;;;;;;;;;;;;;;;14.15;61.36;100093.56;5108643;28;19984;-84
2022/05/21 01:20:58;;;;;;;;;;;;;;;14.15;61.82;100085.59;5110762;28;20366;-85
2022/05/21 01:23:24;;;;;;;;;;;;;;;13.92;62.20;100099.38;5110540;28;20467;-84
2022/05/21 01:25:50;;;;;;;;;;;;;;;13.87;62.39;100095.94;5110821;28;19915;-84
2022/05/21 01:28:17;;;;;;;;;;;;;;;13.82;62.23;100095.19;5110053;28;19920;-85
2022/05/21 01:30:44;;;;;;;;;;;;;;;13.66;62.53;100090.22;5110514;28;19920;-85
2022/05/21 01:33:12;;;;;;;;;;;;;;;13.60;62.33;100090.34;5110797;28;19915;-85
2022/05/21 01:35:39;;;;;;;;;;;;;;;13.53;61.93;100086.06;5110757;28;19919;-85
2022/05/21 01:38:04;;;;;;;;;;;;;;;13.40;62.81;100081.00;5109680;27;20347;-86
2022/05/21 01:40:30;;;;;;;;;;;;;;;13.43;62.99;100072.16;5111052;28;19911;-86
2022/05/21 01:45:39;;;;;;;;;;;;;;;13.37;63.50;100064.31;5110216;28;20305;-85
2022/05/21 01:48:05;;;;;;;;;;;;;;;13.47;62.88;100065.00;5109837;28;19915;-84
2022/05/21 01:50:30;;;;;;;;;;;;;;;13.55;62.78;100073.69;5110058;28;20316;-83
2022/05/21 01:52:56;;;;;;;;;;;;;;;13.48;63.06;100069.41;5110523;28;20731;-84
2022/05/21 01:55:21;;;;;;;;;;;;;;;13.58;62.83;100071.81;5109539;28;19976;-85
2022/05/21 01:57:47;;;;;;;;;;;;;;;13.59;62.88;100064.72;5110466;28;20040;-85
2022/05/21 02:00:13;;;;;;;;;;;;;;;13.60;62.78;100069.13;5110451;28;19984;-85
2022/05/21 02:02:38;;;;;;;;;;;;;;;13.61;62.33;100065.59;5110564;28;19912;-85
2022/05/21 02:05:04;;;;;;;;;;;;;;;13.48;62.94;100061.44;5110355;28;19919;-85
2022/05/21 02:07:29;;;;;;;;;;;;;;;13.51;63.19;100056.09;5110570;28;19949;-84
2022/05/21 02:09:54;;;;;;;;;;;;;;;13.53;63.16;100051.63;5109994;28;19919;-85
2022/05/21 02:12:20;;;;;;;;;;;;;;;13.57;62.62;100053.31;5110346;28;19926;-85
2022/05/21 02:14:45;;;;;;;;;;;;;;;13.49;63.03;100049.94;5110327;28;19928;-85
2022/05/21 02:17:10;;;;;;;;;;;;;;;13.56;62.68;100051.53;5110462;28;19916;-85
2022/05/21 02:19:36;;;;;;;;;;;;;;;13.45;63.19;100048.25;5110668;28;19957;-84
2022/05/21 02:22:01;;;;;;;;;;;;;;;13.36;63.41;100047.56;5109992;28;19984;-84
2022/05/21 02:24:26;;;;;;;;;;;;;;;13.55;63.70;100044.53;5109924;28;19927;-84
2022/05/21 02:26:51;;;;;;;;;;;;;;;13.48;63.71;100041.09;5109778;28;19927;-84
2022/05/21 02:29:18;;;;;;;;;;;;;;;13.57;63.37;100040.06;5109467;28;19919;-85
2022/05/21 02:31:43;;;;;;;;;;;;;;;13.60;62.86;100046.16;5109880;28;19931;-84
2022/05/21 02:34:09;;;;;;;;;;;;;;;13.46;63.38;100042.94;5110003;27;19919;-85
2022/05/21 02:39:30;;;;;;;;;;;;;;;13.35;62.69;100059.06;5109949;28;19919;-85
2022/05/21 02:41:56;;;;;;;;;;;;;;;13.20;62.77;100046.94;5107688;28;20320;-86
2022/05/21 02:44:22;;;;;;;;;;;;;;;13.07;63.78;100045.47;5095991;28;19926;-85
2022/05/21 02:46:47;;;;;;;;;;;;;;;12.87;64.55;100045.84;5108613;28;19912;-86
2022/05/21 02:49:12;;;;;;;;;;;;;;;12.98;64.38;100048.28;5109955;28;19919;-86
2022/05/21 02:51:38;;;;;;;;;;;;;;;13.05;64.32;100050.78;5109011;28;19926;-86
2022/05/21 02:54:03;;;;;;;;;;;;;;;13.07;64.69;100056.94;5109357;28;20312;-85
2022/05/21 02:56:28;;;;;;;;;;;;;;;13.05;65.05;100057.84;5108607;28;19912;-85
2022/05/21 02:58:54;;;;;;;;;;;;;;;13.18;64.88;100054.06;5110047;28;20003;-85
2022/05/21 03:01:19;;;;;;;;;;;;;;;13.18;64.60;100063.78;5109299;28;19951;-86
2022/05/21 03:03:44;;;;;;;;;;;;;;;13.24;64.72;100056.59;5107862;28;19927;-85
2022/05/21 03:06:10;;;;;;;;;;;;;;;13.25;64.79;100052.16;5108920;28;19915;-83
2022/05/21 03:11:19;;;;;;;;;;;;;;;13.29;64.40;100058.28;5108317;28;19926;-84
2022/05/21 03:13:44;;;;;;;;;;;;;;;13.22;64.30;100060.16;5108679;28;19916;-81
2022/05/21 03:16:10;;;;;;;;;;;;;;;13.24;64.72;100053.06;5107891;28;19923;-82
2022/05/21 03:18:36;;;;;;;;;;;;;;;13.06;65.17;100056.94;5108530;28;19916;-83
2022/05/21 03:21:01;;;;;;;;;;;;;;;13.07;64.84;100056.06;5109412;28;19926;-82
2022/05/21 03:23:27;;;;;;;;;;;;;;;13.21;64.49;100061.94;5106273;28;20034;-83
2022/05/21 03:25:52;;;;;;;;;;;;;;;13.33;64.28;100065.25;5108043;28;19923;-82
2022/05/21 03:28:19;;;;;;;;;;;;;;;13.29;64.31;100064.44;5109314;28;19929;-84
2022/05/21 03:30:44;;;;;;;;;;;;;;;13.14;64.92;100065.59;5108408;28;19933;-83
2022/05/21 03:33:10;;;;;;;;;;;;;;;13.10;65.10;100063.94;5107593;28;20031;-83
2022/05/21 03:35:36;;;;;;;;;;;;;;;13.16;65.33;100069.13;5108129;28;20351;-83
2022/05/21 03:38:01;;;;;;;;;;;;;;;13.16;65.24;100068.22;5105885;28;19915;-84
2022/05/21 03:40:28;;;;;;;;;;;;;;;13.27;65.28;100066.25;5108438;28;19915;-83
2022/05/21 03:42:54;;;;;;;;;;;;;;;13.34;64.57;100061.72;5108345;28;19975;-82
2022/05/21 03:45:20;;;;;;;;;;;;;;;13.20;65.21;100067.28;5108319;27;19923;-84
2022/05/21 03:47:45;;;;;;;;;;;;;;;12.97;65.18;100065.06;5104882;28;19920;-82
2022/05/21 03:50:12;;;;;;;;;;;;;;;13.06;64.86;100067.53;5100465;28;19915;-82
2022/05/21 03:52:38;;;;;;;;;;;;;;;13.01;64.60;100072.94;5108515;28;19922;-82
2022/05/21 03:55:03;;;;;;;;;;;;;;;13.15;64.59;100070.00;5108602;27;19919;-82
2022/05/21 03:57:29;;;;;;;;;;;;;;;13.32;63.86;100074.13;5108392;28;19912;-82
2022/05/21 03:59:57;;;;;;;;;;;;;;;13.33;63.62;100070.53;5106915;28;19947;-82
2022/05/21 04:02:22;;;;;;;;;;;;;;;13.66;63.33;100076.97;5107359;28;20011;-82
2022/05/21 04:04:47;;;;;;;;;;;;;;;13.96;62.68;100077.19;5107200;28;20594;-83
2022/05/21 04:07:13;;;;;;;;;;;;;;;14.24;61.59;100088.03;5107828;28;20032;-82
2022/05/21 04:09:38;;;;;;;;;;;;;;;14.09;60.25;100083.09;5107082;28;19920;-81
2022/05/21 04:12:04;;;;;;;;;;;;;;;14.07;60.50;100083.13;5107665;28;20748;-81
2022/05/21 04:14:29;;;;;;;;;;;;;;;14.20;61.64;100069.56;5107296;28;20046;-81
2022/05/21 04:16:55;;;;;;;;;;;;;;;14.71;59.86;100071.00;5108121;28;20299;-82
2022/05/21 04:19:21;;;;;;;;;;;;;;;15.02;58.70;100065.72;5106786;28;19927;-82
2022/05/21 04:21:47;;;;;;;;;;;;;;;14.82;57.54;100071.56;5106586;28;19923;-82
2022/05/21 04:24:12;;;;;;;;;;;;;;;15.01;56.16;100062.22;5107497;28;19990;-82
2022/05/21 04:26:37;;;;;;;;;;;;;;;15.20;55.74;100069.66;5107551;28;20452;-82
2022/05/21 04:29:04;;;;;;;;;;;;;;;15.40;55.18;100061.13;5107685;28;19919;-82
2022/05/21 04:31:29;;;;;;;;;;;;;;;15.66;55.30;100064.78;5107519;28;19926;-82
2022/05/21 04:33:55;;;;;;;;;;;;;;;15.93;55.21;100066.63;5106636;28;20457;-82
2022/05/21 04:36:21;;;;;;;;;;;;;;;16.15;53.30;100075.75;5107732;28;19915;-83
2022/05/21 04:38:48;;;;;;;;;;;;;;;16.28;52.92;100071.75;5106999;28;19908;-82
2022/05/21 04:41:13;;;;;;;;;;;;;;;16.40;52.14;100071.34;5106645;28;20076;-82
2022/05/21 04:43:39;;;;;;;;;;;;;;;16.46;52.68;100070.28;5103771;28;20422;-82
2022/05/21 04:46:05;;;;;;;;;;;;;;;16.61;52.65;100071.56;5106741;28;19958;-82
2022/05/21 04:48:31;;;;;;;;;;;;;;;16.85;52.31;100071.63;5107387;28;20294;-83
2022/05/21 04:51:00;;;;;;;;;;;;;;;16.63;52.03;100075.91;5106846;28;19923;-82
2022/05/21 04:53:26;;;;;;;;;;;;;;;16.63;50.92;100075.03;5106886;28;19976;-83
2022/05/21 04:55:51;;;;;;;;;;;;;;;16.85;51.91;100077.81;5104481;27;20389;-80
2022/05/21 04:58:16;;;;;;;;;;;;;;;17.02;48.73;100073.75;5099747;28;20744;-82
2022/05/21 05:00:41;;;;;;;;;;;;;;;16.71;50.26;100072.13;5093930;28;19915;-82
2022/05/21 05:03:11;;;;;;;;;;;;;;;16.82;51.27;100064.59;5105391;28;20400;-81
2022/05/21 05:05:37;;;;;;;;;;;;;;;17.22;49.91;100063.22;5114217;28;19916;-83
2022/05/21 05:08:02;;;;;;;;;;;;;;;17.45;47.49;100066.84;5114314;27;19922;-82
2022/05/21 05:10:28;;;;;;;;;;;;;;;17.54;47.85;100063.81;5113950;28;19919;-82
2022/05/21 05:12:53;;;;;;;;;;;;;;;18.12;47.11;100059.84;5113803;28;20404;-80
2022/05/21 05:15:18;;;;;;;;;;;;;;;17.69;47.30;100065.06;5112607;28;19923;-82
2022/05/21 05:17:44;;;;;;;;;;;;;;;17.78;48.40;100062.03;5114106;27;19919;-82
2022/05/21 05:20:09;;;;;;;;;;;;;;;17.99;47.52;100071.00;5113436;28;19912;-81
2022/05/21 05:22:34;;;;;;;;;;;;;;;18.24;48.06;100072.69;5113892;27;19927;-82
2022/05/21 05:25:04;;;;;;;;;;;;;;;18.30;46.45;100067.09;5114640;28;19912;-82
2022/05/21 05:27:29;;;;;;;;;;;;;;;18.07;49.11;100058.25;5114383;27;19912;-82
2022/05/21 05:29:54;;;;;;;;;;;;;;;18.08;46.93;100061.75;5112511;27;20416;-82
2022/05/21 05:32:20;;;;;;;;;;;;;;;18.12;46.83;100065.16;5114097;27;19916;-82
2022/05/21 05:34:45;;;;;;;;;;;;;;;18.15;46.71;100071.28;5113718;28;19951;-82
2022/05/21 05:37:10;;;;;;;;;;;;;;;18.41;46.64;100075.56;5101781;28;20006;-83
2022/05/21 05:39:36;;;;;;;;;;;;;;;18.51;45.20;100064.47;5105634;28;19919;-82
2022/05/21 05:42:03;;;;;;;;;;;;;;;19.17;45.79;100059.00;5113286;28;19927;-82
2022/05/21 05:44:28;;;;;;;;;;;;;;;19.77;45.19;100061.63;5112719;28;19923;-83
2022/05/21 05:46:54;;;;;;;;;;;;;;;19.73;42.89;100065.34;5113515;27;20405;-83
2022/05/21 05:49:19;;;;;;;;;;;;;;;19.72;43.01;100060.91;5110078;28;19968;-83
2022/05/21 05:51:45;;;;;;;;;;;;;;;19.56;43.60;100062.59;5112024;27;20057;-83
2022/05/21 05:54:10;;;;;;;;;;;;;;;19.58;42.91;100053.53;5110830;27;19968;-83
2022/05/21 05:56:35;;;;;;;;;;;;;;;19.71;44.27;100060.97;5103847;28;19908;-89
2022/05/21 06:01:45;;;;;;;;;;;;;;;20.03;44.82;100059.47;5113448;28;19927;-83
2022/05/21 06:04:10;;;;;;;;;;;;;;;20.57;43.26;100057.72;5107695;28;19916;-83
2022/05/21 06:06:35;;;;;;;;;;;;;;;20.65;42.65;100057.34;5109975;28;19922;-83
2022/05/21 06:09:02;;;;;;;;;;;;;;;20.64;41.40;100052.03;5108920;28;19912;-82
2022/05/21 06:11:27;;;;;;;;;;;;;;;20.32;40.89;100047.34;5108190;28;19926;-83
2022/05/21 06:13:52;;;;;;;;;;;;;;;20.64;41.69;100036.81;5110447;28;19923;-84
2022/05/21 06:16:18;;;;;;;;;;;;;;;20.72;42.24;100036.44;5104551;28;19953;-83
2022/05/21 06:18:43;;;;;;;;;;;;;;;21.07;40.20;100033.75;5090481;28;19919;-82
2022/05/21 06:21:09;;;;;;;;;;;;;;;21.15;42.21;100036.88;5110621;28;19916;-84
2022/05/21 06:23:35;;;;;;;;;;;;;;;21.25;38.67;100039.91;5109143;28;19973;-84
2022/05/21 06:26:01;;;;;;;;;;;;;;;21.09;39.97;100034.53;5109963;28;19916;-82
2022/05/21 06:28:29;;;;;;;;;;;;;;;21.39;36.44;100033.81;5108708;28;19919;-84
2022/05/21 06:30:55;;;;;;;;;;;;;;;21.46;40.46;100030.69;5092557;28;19916;-86
2022/05/21 06:33:20;;;;;;;;;;;;;;;22.06;39.86;100026.53;5089674;28;19916;-85
2022/05/21 06:35:46;;;;;;;;;;;;;;;22.66;36.58;100024.84;5089869;28;20373;-85
2022/05/21 06:38:12;;;;;;;;;;;;;;;22.91;35.13;100021.53;5089515;28;19916;-84
2022/05/21 06:40:37;;;;;;;;;;;;;;;23.41;35.65;100017.53;5089800;28;19935;-85
2022/05/21 06:43:03;;;;;;;;;;;;;;;23.90;36.26;100028.88;5089655;28;19935;-82
2022/05/21 06:45:29;;;;;;;;;;;;;;;24.13;33.49;100020.13;5107668;28;19958;-81
2022/05/21 06:47:58;;;;;;;;;;;;;;;24.47;33.95;100017.00;5109884;28;20048;-83
2022/05/21 06:50:24;;;;;;;;;;;;;;;23.86;34.60;100011.16;5107447;28;20171;-83
2022/05/21 06:52:49;;;;;;;;;;;;;;;24.10;32.44;100014.09;5109625;28;20348;-86
2022/05/21 06:55:14;;;;;;;;;;;;;;;25.05;32.95;100006.72;5108848;27;20519;-86
2022/05/21 06:57:40;;;;;;;;;;;;;;;25.37;33.24;100003.59;5109874;27;20373;-86
2022/05/21 07:00:05;;;;;;;;;;;;;;;24.69;33.07;100002.94;5109353;28;19919;-87
2022/05/21 07:02:31;;;;;;;;;;;;;;;24.40;32.44;100000.34;5109089;28;19927;-87
2022/05/21 07:07:44;;;;;;;;;;;;;;;25.53;31.51;99990.72;5110018;28;19923;-86
2022/05/21 07:10:12;;;;;;;;;;;;;;;25.32;34.55;99982.34;5108345;28;19919;-88
2022/05/21 07:12:37;;;;;;;;;;;;;;;25.55;31.65;99983.38;5110196;28;19915;-87
2022/05/21 07:15:04;;;;;;;;;;;;;;;26.12;29.92;99970.22;5108201;28;20415;-84
2022/05/21 07:17:29;;;;;;;;;;;;;;;26.70;28.21;99958.63;5108180;28;19916;-85
2022/05/21 07:19:54;;;;;;;;;;;;;;;27.00;30.28;99949.06;5106450;28;20449;-84
2022/05/21 07:22:20;;;;;;;;;;;;;;;27.34;29.26;99947.22;5108372;28;19980;-85
2022/05/21 07:24:45;;;;;;;;;;;;;;;27.39;28.06;99934.19;5108665;28;20000;-86
2022/05/21 07:27:12;;;;;;;;;;;;;;;27.30;30.21;99935.75;5108899;28;19912;-85
2022/05/21 07:29:37;;;;;;;;;;;;;;;27.57;29.30;99933.66;5108632;28;20396;-86
2022/05/21 07:32:03;;;;;;;;;;;;;;;27.59;27.39;99935.25;5108500;28;19924;-85
2022/05/21 07:34:29;;;;;;;;;;;;;;;28.01;26.00;99926.41;5108937;27;19926;-86
2022/05/21 07:36:54;;;;;;;;;;;;;;;28.00;25.67;99921.97;5108393;28;19916;-84
2022/05/21 07:39:20;;;;;;;;;;;;;;;27.89;25.84;99920.13;5107613;28;20010;-85
2022/05/21 07:41:45;;;;;;;;;;;;;;;28.03;25.29;99914.44;5100165;28;20768;-84
2022/05/21 07:44:11;;;;;;;;;;;;;;;28.28;26.36;99912.34;5113163;28;19916;-84
2022/05/21 07:46:36;;;;;;;;;;;;;;;28.57;25.82;99895.41;5107707;28;19939;-83
2022/05/21 07:49:01;;;;;;;;;;;;;;;28.62;25.84;99890.44;5108862;28;20454;-84
2022/05/21 07:51:27;;;;;;;;;;;;;;;28.84;24.44;99880.41;5108478;28;19919;-84
2022/05/21 07:53:52;;;;;;;;;;;;;;;28.91;24.88;99874.31;5108799;28;19963;-83
2022/05/21 07:56:18;;;;;;;;;;;;;;;29.15;23.68;99870.41;5107973;28;19978;-85
2022/05/21 07:58:43;;;;;;;;;;;;;;;28.91;24.33;99871.59;5109328;28;19969;-84
2022/05/21 08:01:11;;;;;;;;;;;;;;;29.15;24.04;99870.41;5108608;27;20467;-86
2022/05/21 08:03:37;;;;;;;;;;;;;;;29.65;23.29;99867.66;5108833;28;19963;-85
2022/05/21 08:06:03;;;;;;;;;;;;;;;29.59;24.18;99859.22;5107433;28;19981;-84
2022/05/21 08:08:28;;;;;;;;;;;;;;;30.04;23.22;99853.22;5108447;28;19969;-85
2022/05/21 08:10:53;;;;;;;;;;;;;;;29.59;26.55;99854.63;5108882;28;19916;-85
2022/05/21 08:13:19;;;;;;;;;;;;;;;29.63;27.87;99852.50;5108764;28;19952;-84
2022/05/21 08:15:44;;;;;;;;;;;;;;;29.69;26.44;99846.50;5109146;28;20667;-84
2022/05/21 08:18:10;;;;;;;;;;;;;;;29.07;27.13;99851.22;5105209;28;19920;-87
2022/05/21 08:20:36;;;;;;;;;;;;;;;28.69;27.74;99850.09;5100395;28;20366;-83
2022/05/21 08:28:29;;;;;;;;;;;;;;;28.90;26.27;99841.88;5107534;28;20008;-85
2022/05/21 08:30:55;;;;;;;;;;;;;;;28.72;26.70;99841.69;5107684;28;19959;-87
2022/05/21 08:33:22;;;;;;;;;;;;;;;28.85;26.25;99841.44;5107792;27;19922;-85
2022/05/21 08:35:47;;;;;;;;;;;;;;;28.60;26.60;99835.47;5107547;28;20284;-85
2022/05/21 08:38:15;;;;;;;;;;;;;;;28.57;26.57;99827.56;5108100;28;19920;-84
2022/05/21 08:40:46;;;;;;;;;;;;;;;28.58;26.53;99834.72;5108171;28;19916;-87
2022/05/21 08:43:34;;;;;;;;;;;;;;;28.67;28.32;99825.81;5107974;28;19912;-85
2022/05/21 08:46:02;;;;;;;;;;;;;;;28.84;26.96;99827.00;5053955;28;19916;-85
2022/05/21 08:48:31;;;;;;;;;;;;;;;28.85;25.49;99814.28;5096625;28;19955;-84
2022/05/21 08:50:57;;;;;;;;;;;;;;;29.63;26.29;99820.75;5107542;28;20083;-87
2022/05/21 08:53:25;;;;;;;;;;;;;;;29.95;26.80;99813.31;5107198;28;20037;-85
2022/05/21 08:55:52;;;;;;;;;;;;;;;30.09;25.03;99807.44;5104506;28;20329;-87
2022/05/21 08:58:29;;;;;;;;;;;;;;;30.40;25.56;99812.69;5106313;28;20061;-86
2022/05/21 09:00:55;;;;;;;;;;;;;;;29.72;24.61;99810.88;5098202;28;19919;-84
2022/05/21 09:03:21;;;;;;;;;;;;;;;29.31;25.09;99799.28;5100470;28;19931;-85
2022/05/21 09:06:07;;;;;;;;;;;;;;;29.14;25.11;99798.06;5106157;28;19939;-86
2022/05/21 09:08:50;;;;;;;;;;;;;;;28.75;26.27;99796.13;5088122;28;19916;-86
2022/05/21 09:11:18;;;;;;;;;;;;;;;29.33;25.38;99786.41;5096677;28;19966;-85
2022/05/21 09:13:55;;;;;;;;;;;;;;;30.29;23.97;99791.94;5107005;28;19923;-87
2022/05/21 09:19:06;;;;;;;;;;;;;;;30.05;26.86;99786.13;5107273;28;19942;-85
2022/05/21 09:21:33;;;;;;;;;;;;;;;30.85;25.79;99783.84;5104940;28;19919;-86
2022/05/21 09:24:03;;;;;;;;;;;;;;;30.53;25.88;99779.69;5107222;28;20400;-84
2022/05/21 09:26:30;;;;;;;;;;;;;;;30.77;24.42;99776.44;5107462;28;19919;-84
2022/05/21 09:29:28;;;;;;;;;;;;;;;30.79;25.26;99766.25;5107018;28;19927;-86
2022/05/21 09:31:57;;;;;;;;;;;;;;;30.42;28.01;99756.25;5057772;28;20006;-83
2022/05/21 09:34:24;;;;;;;;;;;;;;;30.63;25.79;99764.19;5106519;28;19975;-81
2022/05/21 09:36:49;;;;;;;;;;;;;;;30.16;26.03;99751.44;5107059;28;19939;-83
2022/05/21 09:39:31;;;;;;;;;;;;;;;30.16;26.11;99753.31;5106814;28;20432;-83
2022/05/21 09:42:08;;;;;;;;;;;;;;;30.46;25.69;99749.50;5110544;28;19919;-84
2022/05/21 09:47:22;;;;;;;;;;;;;;;31.14;25.42;99741.97;5109730;28;19938;-84
2022/05/21 09:50:14;;;;;;;;;;;;;;;31.44;25.69;99740.72;5107813;28;19919;-84
2022/05/21 09:52:40;;;;;;;;;;;;;;;31.27;23.83;99734.25;5106115;28;19919;-84
2022/05/21 09:55:18;;;;;;;;;;;;;;;31.42;26.87;99734.59;5106325;28;19971;-83
2022/05/21 09:57:43;;;;;;;;;;;;;;;31.61;22.87;99722.66;5110758;28;19923;-85
2022/05/21 10:00:17;;;;;;;;;;;;;;;31.15;25.07;99721.88;5111080;28;19915;-86
2022/05/21 10:02:53;;;;;;;;;;;;;;;31.08;23.64;99723.50;5100744;28;20296;-86
2022/05/21 10:05:24;;;;;;;;;;;;;;;30.41;25.89;99724.59;5105038;28;19919;-88
2022/05/21 10:11:04;;;;;;;;;;;;;;;31.29;24.66;99718.59;5109532;28;19926;-88
2022/05/21 10:13:44;;;;;;;;;;;;;;;31.36;24.25;99714.25;5107214;28;20351;-87
2022/05/21 10:16:27;;;;;;;;;;;;;;;31.64;22.94;99708.72;5104062;28;19957;-88
2022/05/21 10:18:53;;;;;;;;;;;;;;;31.49;24.05;99702.09;5109906;28;19923;-88
2022/05/21 10:21:30;;;;;;;;;;;;;;;31.93;23.55;99708.41;5109552;28;19912;-89
2022/05/21 10:24:01;;;;;;;;;;;;;;;31.47;23.80;99699.53;5105931;28;19919;-86
2022/05/21 10:26:46;;;;;;;;;;;;;;;30.80;24.75;99708.06;5105696;28;19912;-85
2022/05/21 10:29:16;;;;;;;;;;;;;;;31.16;23.32;99702.66;5108136;28;19919;-85
2022/05/21 10:32:02;;;;;;;;;;;;;;;31.31;23.14;99707.56;5110203;28;19916;-86
2022/05/21 10:34:44;;;;;;;;;;;;;;;31.30;23.81;99700.41;5077918;28;19916;-86
2022/05/21 10:37:12;;;;;;;;;;;;;;;31.40;26.02;99695.72;5108657;28;19919;-87
2022/05/21 10:39:43;;;;;;;;;;;;;;;31.24;23.43;99691.84;5091899;28;19927;-86
2022/05/21 10:42:26;;;;;;;;;;;;;;;31.58;23.31;99685.66;5099651;28;20448;-86
2022/05/21 10:44:52;;;;;;;;;;;;;;;31.44;21.99;99688.94;5108750;28;19968;-89
2022/05/21 10:47:29;;;;;;;;;;;;;;;31.34;21.82;99674.53;5109662;28;19930;-84
2022/05/21 10:49:57;;;;;;;;;;;;;;;31.39;23.71;99683.13;5125016;28;19922;-85
2022/05/21 10:52:23;;;;;;;;;;;;;;;31.36;22.89;99678.00;5112370;28;19923;-87
2022/05/21 10:55:06;;;;;;;;;;;;;;;31.25;24.33;99676.38;5106552;28;19912;-86
2022/05/21 10:57:50;;;;;;;;;;;;;;;31.36;21.42;99673.38;5102187;28;19919;-85
2022/05/21 11:00:25;;;;;;;;;;;;;;;32.06;22.14;99668.94;5089678;28;19916;-83
2022/05/21 11:02:54;;;;;;;;;;;;;;;31.29;21.76;99666.84;5098838;28;19974;-82
2022/05/21 11:05:40;;;;;;;;;;;;;;;30.78;22.76;99669.22;5091113;28;19934;-83
2022/05/21 11:08:05;;;;;;;;;;;;;;;31.07;20.67;99657.28;5109753;28;19926;-82
2022/05/21 11:10:34;;;;;;;;;;;;;;;31.49;20.20;99655.75;5108081;28;19928;-83
2022/05/21 11:13:05;;;;;;;;;;;;;;;31.58;20.05;99655.69;5104993;28;19920;-83
2022/05/21 11:15:37;;;;;;;;;;;;;;;31.70;21.20;99658.13;5101240;28;19920;-83
2022/05/21 11:18:05;;;;;;;;;;;;;;;32.43;21.58;99659.56;5100299;28;19960;-83
2022/05/21 11:20:38;;;;;;;;;;;;;;;32.20;20.49;99660.16;5098821;27;19920;-84
2022/05/21 11:23:07;;;;;;;;;;;;;;;32.22;22.40;99652.66;5107183;28;19912;-83
2022/05/21 11:25:39;;;;;;;;;;;;;;;31.73;20.17;99644.19;5109001;28;19926;-84
2022/05/21 11:28:07;;;;;;;;;;;;;;;31.90;20.32;99643.28;5109890;28;19916;-84
2022/05/21 11:30:32;;;;;;;;;;;;;;;31.62;19.55;99634.41;5109561;28;19976;-83
2022/05/21 11:38:44;;;;;;;;;;;;;;;31.10;21.10;99620.72;5108771;28;19977;-83
2022/05/21 11:41:25;;;;;;;;;;;;;;;31.48;20.21;99621.34;5109432;28;19955;-84
2022/05/21 11:44:55;;;;;;;;;;;;;;;31.95;19.70;99620.97;5110969;28;20036;-85
2022/05/21 11:46:45;;;;;;;;;;;;;;;31.44;19.41;99607.19;5099626;28;19916;-83
2022/05/21 11:49:36;;;;;;;;;;;;;;;31.82;20.25;99609.66;5101205;28;19966;-85
2022/05/21 11:52:21;;;;;;;;;;;;;;;32.51;18.90;99605.00;5095738;28;19950;-85
2022/05/21 11:54:49;;;;;;;;;;;;;;;32.65;18.95;99592.59;5098253;28;19973;-85
2022/05/21 11:57:33;;;;;;;;;;;;;;;32.91;18.33;99587.00;5098861;28;19911;-84
2022/05/21 11:59:59;;;;;;;;;;;;;;;32.73;18.80;99583.56;5100554;28;19941;-85
2022/05/21 12:02:29;;;;;;;;;;;;;;;32.54;20.82;99580.09;5105214;28;19950;-87
2022/05/21 12:04:56;;;;;;;;;;;;;;;33.01;18.86;99576.75;5108285;28;20006;-85
2022/05/21 12:07:40;;;;;;;;;;;;;;;32.83;18.49;99567.88;5105857;28;19915;-86
2022/05/21 12:10:26;;;;;;;;;;;;;;;32.11;22.34;99571.09;5095600;28;19916;-86
2022/05/21 12:13:00;;;;;;;;;;;;;;;31.78;17.55;99568.22;5109207;28;19973;-84
2022/05/21 12:15:35;;;;;;;;;;;;;;;32.53;17.22;99550.22;5104252;28;19991;-86
2022/05/21 12:18:03;;;;;;;;;;;;;;;32.28;18.14;99561.09;5105073;28;19915;-84
2022/05/21 12:20:41;;;;;;;;;;;;;;;32.56;18.24;99542.53;5108254;28;19920;-85
2022/05/21 12:23:10;;;;;;;;;;;;;;;33.00;17.02;99539.53;5107094;28;20401;-84
2022/05/21 12:25:41;;;;;;;;;;;;;;;33.23;17.86;99529.78;5105510;28;20432;-84
2022/05/21 12:28:08;;;;;;;;;;;;;;;33.55;16.57;99521.50;5106326;28;19924;-84
2022/05/21 12:30:34;;;;;;;;;;;;;;;33.40;16.41;99516.94;5107456;27;19919;-84
2022/05/21 12:33:00;;;;;;;;;;;;;;;33.76;16.86;99509.16;5107950;28;19915;-84
2022/05/21 12:35:45;;;;;;;;;;;;;;;33.87;18.69;99494.22;5103599;28;19972;-86
2022/05/21 12:38:16;;;;;;;;;;;;;;;33.73;16.94;99488.47;5104999;28;20338;-88
2022/05/21 12:40:50;;;;;;;;;;;;;;;33.81;18.21;99487.56;5103309;28;19920;-88
2022/05/21 12:43:15;;;;;;;;;;;;;;;33.57;18.68;99471.25;5106221;28;19919;-86
2022/05/21 12:45:51;;;;;;;;;;;;;;;33.31;19.46;99472.41;5105219;28;20450;-87
2022/05/21 12:48:22;;;;;;;;;;;;;;;33.22;20.86;99467.97;5102138;28;19916;-87
2022/05/21 12:50:55;;;;;;;;;;;;;;;32.99;19.02;99460.47;5107176;28;19916;-89
2022/05/21 12:53:37;;;;;;;;;;;;;;;32.55;18.58;99458.09;5106420;28;20369;-87
2022/05/21 12:56:04;;;;;;;;;;;;;;;33.14;17.82;99455.16;5093078;28;19919;-89
2022/05/21 12:58:29;;;;;;;;;;;;;;;33.33;21.26;99437.53;5108169;28;19958;-86
2022/05/21 13:00:56;;;;;;;;;;;;;;;33.61;17.66;99439.81;5107727;28;19988;-86
2022/05/21 13:03:22;;;;;;;;;;;;;;;33.76;14.73;99437.22;5107437;28;19926;-85
2022/05/21 13:06:07;;;;;;;;;;;;;;;34.08;13.97;99425.19;5109198;28;19914;-93
2022/05/21 13:08:34;;;;;;;;;;;;;;;33.69;15.68;99426.06;5107512;28;19915;-92
2022/05/21 13:11:00;;;;;;;;;;;;;;;34.13;16.71;99417.28;5110073;28;19917;-96
2022/05/21 13:13:27;;;;;;;;;;;;;;;34.64;17.63;99427.66;5107665;28;19923;-86
2022/05/21 13:15:57;;;;;;;;;;;;;;;34.81;14.23;99416.59;5106409;28;19927;-87
2022/05/21 13:18:22;;;;;;;;;;;;;;;34.50;16.92;99421.13;5112424;28;20291;-87
2022/05/21 13:21:06;;;;;;;;;;;;;;;33.78;18.09;99413.25;5114418;28;19915;-87